VIV101 KJFK-MMMX
Flight info
| Callsign | VIV101 |
|---|---|
| Flight time | N/A |
| Altitude | 36000 |
| Route | RBV Q430 COPES Q75 GVE DCT LYH DCT COLZI DCT AWYAT DCT IPTAY DCT CHOPZ DCT MGM DCT SJI DCT TBD M575 KENGS M345 AXEXO UM345 PAZ UT154 ENAGA ENAGA3B |
| Aircraft | A20N/M-SDE2E3FGHIRWXY/S |
Departure
| Time | 2026-05-05 20:55 |
|---|---|
| Airport | John F. Kennedy International Airport (KJFK) |
Arrival
| Time | N/A |
|---|---|
| Airport | Mexico City Benito Juárez International Airport (MMMX) |
| Time | Latitude | Longitude | Altitude | Speed | Heading |
|---|---|---|---|---|---|
| 2026-05-05 20:12 | 40.64179 | -73.78183 | 17 ft | 0 kts | 272° |
| 2026-05-05 20:35 | 40.64178 | -73.78178 | 17 ft | 2 kts | 273° |
| 2026-05-05 20:35 | 40.64178 | -73.78159 | 17 ft | 2 kts | 272° |
| 2026-05-05 20:36 | 40.64177 | -73.78140 | 17 ft | 2 kts | 273° |
| 2026-05-05 20:36 | 40.64177 | -73.78120 | 17 ft | 2 kts | 272° |
| 2026-05-05 20:36 | 40.64176 | -73.78108 | 17 ft | 2 kts | 271° |
| 2026-05-05 20:36 | 40.64180 | -73.78088 | 17 ft | 2 kts | 231° |
| 2026-05-05 20:37 | 40.64192 | -73.78076 | 17 ft | 2 kts | 199° |
| 2026-05-05 20:37 | 40.64201 | -73.78074 | 17 ft | 1 kts | 180° |
| 2026-05-05 20:37 | 40.64207 | -73.78075 | 17 ft | 0 kts | 180° |
| 2026-05-05 20:39 | 40.64203 | -73.78074 | 17 ft | 1 kts | 177° |
| 2026-05-05 20:39 | 40.64189 | -73.78071 | 17 ft | 2 kts | 166° |
| 2026-05-05 20:39 | 40.64166 | -73.78058 | 17 ft | 4 kts | 154° |
| 2026-05-05 20:40 | 40.64132 | -73.78037 | 16 ft | 2 kts | 154° |
| 2026-05-05 20:40 | 40.64131 | -73.78037 | 16 ft | 0 kts | 154° |
| 2026-05-05 20:41 | 40.64129 | -73.78034 | 16 ft | 1 kts | 151° |
| 2026-05-05 20:41 | 40.64105 | -73.78017 | 16 ft | 6 kts | 150° |
| 2026-05-05 20:41 | 40.64055 | -73.77981 | 16 ft | 10 kts | 151° |
| 2026-05-05 20:42 | 40.64017 | -73.77898 | 16 ft | 11 kts | 129° |
| 2026-05-05 20:42 | 40.63949 | -73.77840 | 16 ft | 12 kts | 149° |
| 2026-05-05 20:42 | 40.63877 | -73.77778 | 16 ft | 12 kts | 146° |
| 2026-05-05 20:42 | 40.63802 | -73.77710 | 15 ft | 13 kts | 142° |
| 2026-05-05 20:43 | 40.63772 | -73.77666 | 15 ft | 0 kts | 128° |
| 2026-05-05 20:43 | 40.63771 | -73.77666 | 15 ft | 0 kts | 128° |
| 2026-05-05 20:43 | 40.63768 | -73.77651 | 15 ft | 2 kts | 95° |
| 2026-05-05 20:44 | 40.63781 | -73.77618 | 15 ft | 5 kts | 47° |
| 2026-05-05 20:44 | 40.63821 | -73.77582 | 15 ft | 8 kts | 28° |
| 2026-05-05 20:44 | 40.63880 | -73.77538 | 15 ft | 11 kts | 31° |
| 2026-05-05 20:44 | 40.63954 | -73.77478 | 16 ft | 13 kts | 31° |
| 2026-05-05 20:45 | 40.64145 | -73.77329 | 16 ft | 19 kts | 30° |
| 2026-05-05 20:45 | 40.64274 | -73.77227 | 16 ft | 21 kts | 30° |
| 2026-05-05 20:45 | 40.64398 | -73.77130 | 16 ft | 20 kts | 31° |
| 2026-05-05 20:46 | 40.64532 | -73.77092 | 16 ft | 14 kts | 2° |
| 2026-05-05 20:46 | 40.64575 | -73.77004 | 17 ft | 13 kts | 88° |
| 2026-05-05 20:46 | 40.64617 | -73.76901 | 17 ft | 13 kts | 30° |
| 2026-05-05 20:46 | 40.64700 | -73.76839 | 17 ft | 13 kts | 30° |
| 2026-05-05 20:47 | 40.64785 | -73.76773 | 17 ft | 14 kts | 31° |
| 2026-05-05 20:47 | 40.64868 | -73.76706 | 17 ft | 14 kts | 31° |
| 2026-05-05 20:47 | 40.64956 | -73.76636 | 17 ft | 14 kts | 30° |
| 2026-05-05 20:47 | 40.65047 | -73.76567 | 17 ft | 13 kts | 30° |
| 2026-05-05 20:48 | 40.65097 | -73.76508 | 17 ft | 9 kts | 73° |
| 2026-05-05 20:48 | 40.65095 | -73.76469 | 17 ft | 0 kts | 111° |
| 2026-05-05 20:53 | 40.65095 | -73.76468 | 17 ft | 0 kts | 111° |
| 2026-05-05 20:53 | 40.65091 | -73.76457 | 17 ft | 2 kts | 113° |
| 2026-05-05 20:53 | 40.65081 | -73.76430 | 17 ft | 4 kts | 120° |
| 2026-05-05 20:54 | 40.65060 | -73.76387 | 17 ft | 6 kts | 128° |
| 2026-05-05 20:54 | 40.65012 | -73.76366 | 17 ft | 8 kts | 194° |
| 2026-05-05 20:54 | 40.64919 | -73.76436 | 17 ft | 35 kts | 210° |
| 2026-05-05 20:54 | 40.64489 | -73.76770 | 17 ft | 105 kts | 211° |
| 2026-05-05 20:55 | 40.63689 | -73.77393 | 17 ft | 161 kts | 210° |
| 2026-05-05 20:55 | 40.62670 | -73.78172 | 500 ft | 169 kts | 211° |
| 2026-05-05 20:55 | 40.61679 | -73.78925 | 1236 ft | 167 kts | 213° |
| 2026-05-05 20:55 | 40.60730 | -73.79691 | 2045 ft | 159 kts | 221° |
| 2026-05-05 20:56 | 40.59925 | -73.80759 | 2439 ft | 172 kts | 235° |
| 2026-05-05 20:56 | 40.59282 | -73.82181 | 2776 ft | 192 kts | 243° |
| 2026-05-05 20:56 | 40.58559 | -73.83767 | 3210 ft | 210 kts | 236° |
| 2026-05-05 20:56 | 40.57673 | -73.85362 | 3657 ft | 227 kts | 235° |
| 2026-05-05 20:57 | 40.56710 | -73.87062 | 4304 ft | 236 kts | 235° |
| 2026-05-05 20:57 | 40.55714 | -73.88805 | 5090 ft | 239 kts | 235° |
| 2026-05-05 20:57 | 40.54710 | -73.90548 | 5841 ft | 243 kts | 235° |
| 2026-05-05 20:57 | 40.53692 | -73.92315 | 6555 ft | 248 kts | 235° |
| 2026-05-05 20:58 | 40.52648 | -73.94121 | 7274 ft | 253 kts | 235° |
| 2026-05-05 20:58 | 40.51581 | -73.95964 | 7988 ft | 257 kts | 235° |
| 2026-05-05 20:58 | 40.50488 | -73.97850 | 8710 ft | 261 kts | 235° |
| 2026-05-05 20:58 | 40.49395 | -73.99734 | 9417 ft | 264 kts | 235° |
| 2026-05-05 20:59 | 40.48269 | -74.01669 | 10096 ft | 268 kts | 235° |
| 2026-05-05 20:59 | 40.47122 | -74.03644 | 10595 ft | 278 kts | 234° |
| 2026-05-05 20:59 | 40.45917 | -74.05718 | 10925 ft | 294 kts | 234° |
| 2026-05-05 20:59 | 40.44642 | -74.07908 | 11488 ft | 302 kts | 234° |
| 2026-05-05 21:00 | 40.43372 | -74.10088 | 12158 ft | 304 kts | 234° |
| 2026-05-05 21:00 | 40.42086 | -74.12290 | 12801 ft | 307 kts | 234° |
| 2026-05-05 21:00 | 40.40779 | -74.14529 | 13432 ft | 311 kts | 234° |
| 2026-05-05 21:00 | 40.39463 | -74.16781 | 14072 ft | 314 kts | 234° |
| 2026-05-05 21:01 | 40.38132 | -74.19057 | 14706 ft | 317 kts | 234° |
| 2026-05-05 21:01 | 40.36784 | -74.21361 | 15320 ft | 320 kts | 234° |
| 2026-05-05 21:01 | 40.35418 | -74.23695 | 15905 ft | 323 kts | 233° |
| 2026-05-05 21:01 | 40.34056 | -74.26018 | 16510 ft | 325 kts | 233° |
| 2026-05-05 21:02 | 40.32665 | -74.28391 | 17090 ft | 328 kts | 233° |
| 2026-05-05 21:02 | 40.31287 | -74.30737 | 17657 ft | 330 kts | 233° |
| 2026-05-05 21:02 | 40.29890 | -74.33115 | 18201 ft | 332 kts | 233° |
| 2026-05-05 21:02 | 40.28461 | -74.35548 | 18750 ft | 335 kts | 233° |
| 2026-05-05 21:03 | 40.27047 | -74.37949 | 19242 ft | 338 kts | 233° |
| 2026-05-05 21:03 | 40.25605 | -74.40399 | 19731 ft | 342 kts | 233° |
| 2026-05-05 21:03 | 40.24148 | -74.42870 | 20215 ft | 345 kts | 233° |
| 2026-05-05 21:03 | 40.22672 | -74.45375 | 20713 ft | 348 kts | 233° |
| 2026-05-05 21:04 | 40.21285 | -74.47994 | 21161 ft | 352 kts | 242° |
| 2026-05-05 21:04 | 40.20337 | -74.50940 | 21639 ft | 355 kts | 253° |
| 2026-05-05 21:04 | 40.19858 | -74.54119 | 22120 ft | 358 kts | 262° |
| 2026-05-05 21:04 | 40.19594 | -74.57359 | 22582 ft | 361 kts | 263° |
| 2026-05-05 21:05 | 40.19345 | -74.60676 | 23024 ft | 365 kts | 263° |
| 2026-05-05 21:05 | 40.19099 | -74.63954 | 23468 ft | 368 kts | 263° |
| 2026-05-05 21:05 | 40.18842 | -74.67299 | 23903 ft | 371 kts | 262° |
| 2026-05-05 21:05 | 40.18578 | -74.70675 | 24336 ft | 374 kts | 262° |
| 2026-05-05 21:06 | 40.18313 | -74.74046 | 24754 ft | 377 kts | 262° |
| 2026-05-05 21:06 | 40.18042 | -74.77463 | 25157 ft | 380 kts | 262° |
| 2026-05-05 21:06 | 40.17768 | -74.80902 | 25572 ft | 383 kts | 263° |
| 2026-05-05 21:06 | 40.17490 | -74.84370 | 25966 ft | 386 kts | 263° |
| 2026-05-05 21:07 | 40.17205 | -74.87891 | 26337 ft | 389 kts | 263° |
| 2026-05-05 21:07 | 40.16921 | -74.91416 | 26718 ft | 392 kts | 263° |
| 2026-05-05 21:07 | 40.16635 | -74.94930 | 27086 ft | 395 kts | 263° |
| 2026-05-05 21:07 | 40.16342 | -74.98524 | 27437 ft | 397 kts | 263° |
| 2026-05-05 21:08 | 40.16049 | -75.02103 | 27785 ft | 400 kts | 263° |
| 2026-05-05 21:08 | 40.15751 | -75.05723 | 28127 ft | 402 kts | 263° |
| 2026-05-05 21:08 | 40.15447 | -75.09406 | 28430 ft | 405 kts | 263° |
| 2026-05-05 21:08 | 40.15147 | -75.13033 | 28754 ft | 406 kts | 263° |
| 2026-05-05 21:09 | 40.14841 | -75.16721 | 29114 ft | 407 kts | 263° |
| 2026-05-05 21:09 | 40.14536 | -75.20371 | 29430 ft | 408 kts | 263° |
| 2026-05-05 21:09 | 40.14223 | -75.24083 | 29700 ft | 410 kts | 263° |
| 2026-05-05 21:09 | 40.13910 | -75.27803 | 29960 ft | 412 kts | 263° |
| 2026-05-05 21:10 | 40.13472 | -75.31501 | 30206 ft | 413 kts | 256° |
| 2026-05-05 21:10 | 40.12656 | -75.35084 | 30447 ft | 414 kts | 249° |
| 2026-05-05 21:10 | 40.11472 | -75.38500 | 30692 ft | 415 kts | 241° |
| 2026-05-05 21:10 | 40.09924 | -75.41723 | 30920 ft | 416 kts | 234° |
| 2026-05-05 21:11 | 40.08079 | -75.44622 | 31163 ft | 417 kts | 228° |
| 2026-05-05 21:11 | 40.06104 | -75.47378 | 31457 ft | 416 kts | 227° |
| 2026-05-05 21:11 | 40.04114 | -75.50113 | 31742 ft | 416 kts | 227° |
| 2026-05-05 21:11 | 40.02129 | -75.52838 | 32030 ft | 415 kts | 227° |
| 2026-05-05 21:12 | 40.00157 | -75.55553 | 32331 ft | 414 kts | 227° |
| 2026-05-05 21:12 | 39.98167 | -75.58298 | 32618 ft | 413 kts | 227° |
| 2026-05-05 21:12 | 39.96198 | -75.61013 | 32910 ft | 412 kts | 227° |
| 2026-05-05 21:12 | 39.94246 | -75.63705 | 33180 ft | 411 kts | 227° |
| 2026-05-05 21:13 | 39.92285 | -75.66441 | 33441 ft | 410 kts | 229° |
| 2026-05-05 21:13 | 39.90421 | -75.69288 | 33698 ft | 409 kts | 231° |
| 2026-05-05 21:13 | 39.88640 | -75.72141 | 33942 ft | 408 kts | 231° |
| 2026-05-05 21:13 | 39.86849 | -75.75007 | 34179 ft | 407 kts | 231° |
| 2026-05-05 21:14 | 39.85051 | -75.77882 | 34429 ft | 406 kts | 231° |
| 2026-05-05 21:14 | 39.83290 | -75.80694 | 34649 ft | 406 kts | 231° |
| 2026-05-05 21:14 | 39.81502 | -75.83547 | 34817 ft | 406 kts | 232° |
| 2026-05-05 21:14 | 39.79722 | -75.86386 | 34964 ft | 407 kts | 232° |
| 2026-05-05 21:15 | 39.77921 | -75.89256 | 35120 ft | 407 kts | 232° |
| 2026-05-05 21:15 | 39.76140 | -75.92090 | 35268 ft | 408 kts | 232° |
| 2026-05-05 21:15 | 39.74331 | -75.94965 | 35414 ft | 408 kts | 232° |
| 2026-05-05 21:15 | 39.72561 | -75.97778 | 35547 ft | 408 kts | 232° |
| 2026-05-05 21:16 | 39.70756 | -76.00644 | 35693 ft | 408 kts | 232° |
| 2026-05-05 21:16 | 39.68959 | -76.03494 | 35840 ft | 408 kts | 232° |